Time;durP1;ratioP1;P1;durP2;ratioP2;P2;SDS_P1;SDS_P2;PMS_P1;PMS_P2;Temp;Humidity;BMP_temperature;BMP_pressure;BME280_temperature;BME280_humidity;BME280_pressure;Samples;Min_cycle;Max_cycle;Signal;HPM_P1;HPM_P2
2022/12/08 00:01:07;;;;;;;13.53;11.27;;;9.10;56.80;;;;;;5044113;28;20435;-58
2022/12/08 00:03:33;;;;;;;14.67;10.63;;;9.10;57.10;;;;;;5037968;28;20196;-58
2022/12/08 00:11:28;;;;;;;15.00;10.97;;;9.00;57.20;;;;;;5047222;28;20447;-58
2022/12/08 00:13:54;;;;;;;13.60;9.83;;;9.00;57.20;;;;;;5035910;28;20446;-58
2022/12/08 00:16:20;;;;;;;12.53;10.37;;;9.10;57.20;;;;;;5037725;28;20245;-58
2022/12/08 00:18:45;;;;;;;13.10;10.23;;;9.00;57.20;;;;;;5034227;28;20196;-58
2022/12/08 00:21:11;;;;;;;18.00;14.57;;;9.00;57.20;;;;;;5038713;28;20196;-58
2022/12/08 00:23:36;;;;;;;20.60;14.30;;;9.00;57.40;;;;;;5038460;28;20236;-58
2022/12/08 00:26:04;;;;;;;18.10;13.80;;;8.90;57.30;;;;;;5039174;28;20184;-58
2022/12/08 00:28:30;;;;;;;16.90;13.00;;;8.90;57.30;;;;;;5034034;28;20236;-58
2022/12/08 00:30:56;;;;;;;14.10;11.40;;;8.90;57.50;;;;;;5037401;28;20447;-58
2022/12/08 00:33:22;;;;;;;15.53;11.60;;;8.90;57.60;;;;;;5039666;28;21699;-58
2022/12/08 00:35:47;;;;;;;17.60;12.60;;;8.90;57.60;;;;;;5039406;28;20201;-58
2022/12/08 00:38:13;;;;;;;13.73;11.83;;;8.90;57.50;;;;;;5036315;28;20571;-58
2022/12/08 00:40:44;;;;;;;18.30;12.37;;;8.90;57.30;;;;;;5047206;28;20201;-58
2022/12/08 00:43:09;;;;;;;16.17;12.53;;;8.90;57.40;;;;;;5034447;28;20195;-58
2022/12/08 00:45:35;;;;;;;16.77;11.90;;;8.80;57.20;;;;;;5033036;28;20801;-58
2022/12/08 00:48:00;;;;;;;17.33;11.57;;;8.80;57.30;;;;;;5048153;28;20290;-57
2022/12/08 00:50:26;;;;;;;15.80;13.33;;;8.80;57.10;;;;;;5045493;28;21011;-57
2022/12/08 00:52:51;;;;;;;15.83;11.87;;;8.90;57.00;;;;;;5034677;28;20207;-58
2022/12/08 00:55:17;;;;;;;16.57;11.80;;;8.90;56.70;;;;;;5040616;28;20292;-58
2022/12/08 00:57:42;;;;;;;13.70;11.57;;;8.80;56.80;;;;;;5038465;28;20208;-58
2022/12/08 01:00:08;;;;;;;12.60;9.40;;;8.80;56.70;;;;;;5037716;28;20188;-58
2022/12/08 01:02:34;;;;;;;13.87;10.37;;;8.80;56.50;;;;;;5047388;28;20560;-58
2022/12/08 01:05:00;;;;;;;14.63;10.27;;;8.80;56.40;;;;;;5051477;28;20473;-58
2022/12/08 01:07:25;;;;;;;11.80;9.07;;;8.80;56.90;;;;;;5051795;28;20224;-58
2022/12/08 01:09:51;;;;;;;14.40;9.60;;;8.80;56.30;;;;;;5057365;28;20191;-58
2022/12/08 01:12:17;;;;;;;11.77;9.53;;;8.70;56.30;;;;;;5052984;28;20253;-57
2022/12/08 01:14:42;;;;;;;14.50;9.63;;;8.70;56.40;;;;;;5051327;28;20907;-57
2022/12/08 01:17:08;;;;;;;15.63;10.83;;;8.70;56.30;;;;;;5051588;28;20644;-57
2022/12/08 01:19:34;;;;;;;16.17;9.60;;;8.60;56.80;;;;;;5047839;28;20272;-57
2022/12/08 01:22:00;;;;;;;11.03;9.43;;;8.60;56.30;;;;;;5046296;28;20219;-60
2022/12/08 01:24:26;;;;;;;10.87;9.47;;;8.60;56.30;;;;;;5045508;28;20224;-57
2022/12/08 01:26:51;;;;;;;13.57;9.30;;;8.50;56.20;;;;;;5054645;28;20427;-57
2022/12/08 01:29:18;;;;;;;13.60;10.03;;;8.50;56.40;;;;;;5050643;28;20950;-57
2022/12/08 01:31:44;;;;;;;16.13;10.33;;;8.50;56.50;;;;;;5051041;28;20473;-57
2022/12/08 01:34:10;;;;;;;11.57;9.30;;;8.50;56.50;;;;;;5048997;28;20246;-57
2022/12/08 01:36:37;;;;;;;11.00;9.10;;;8.50;56.10;;;;;;5051557;28;20196;-57
2022/12/08 01:39:05;;;;;;;10.43;8.47;;;8.40;55.90;;;;;;5049703;28;20431;-59
2022/12/08 01:41:33;;;;;;;11.00;8.10;;;8.30;55.60;;;;;;5049929;28;20439;-57
2022/12/08 01:44:02;;;;;;;11.70;8.93;;;8.20;55.80;;;;;;5032057;28;21010;-57
2022/12/08 01:46:30;;;;;;;9.80;8.10;;;8.20;56.00;;;;;;5039878;28;20505;-57
2022/12/08 01:49:00;;;;;;;13.00;9.73;;;8.10;56.20;;;;;;5046853;28;20486;-57
2022/12/08 01:51:26;;;;;;;11.67;8.43;;;8.10;56.20;;;;;;5042374;28;21158;-57
2022/12/08 01:53:52;;;;;;;11.63;8.80;;;8.10;56.30;;;;;;5033580;28;20506;-58
2022/12/08 01:56:33;;;;;;;14.90;9.50;;;8.10;56.30;;;;;;5036899;28;20525;-57
2022/12/08 01:58:59;;;;;;;13.97;8.90;;;8.00;56.20;;;;;;5043476;28;20802;-57
2022/12/08 02:01:25;;;;;;;11.60;8.47;;;7.80;56.30;;;;;;5036636;28;20445;-57
2022/12/08 02:04:01;;;;;;;13.37;9.10;;;7.80;56.70;;;;;;5034998;28;20205;-57
2022/12/08 02:06:32;;;;;;;12.73;9.07;;;7.80;56.90;;;;;;5037589;28;20189;-57
2022/12/08 02:09:00;;;;;;;12.80;9.20;;;7.90;56.90;;;;;;5036887;28;21215;-57
2022/12/08 02:11:26;;;;;;;10.43;8.70;;;7.80;56.80;;;;;;5042291;28;20435;-57
2022/12/08 02:13:52;;;;;;;11.60;8.33;;;7.80;56.70;;;;;;5037290;28;20449;-57
2022/12/08 02:16:24;;;;;;;8.90;7.50;;;7.80;56.60;;;;;;5035924;28;20189;-57
2022/12/08 02:18:55;;;;;;;10.57;8.37;;;7.80;56.50;;;;;;5032575;28;20452;-57
2022/12/08 02:21:24;;;;;;;8.33;6.87;;;7.80;56.40;;;;;;5039513;28;20450;-57
2022/12/08 02:24:06;;;;;;;9.50;8.23;;;7.80;56.40;;;;;;5037508;28;20479;-57
2022/12/08 02:26:47;;;;;;;11.03;8.57;;;7.70;56.30;;;;;;5041861;28;20509;-57
2022/12/08 02:29:27;;;;;;;10.60;7.53;;;7.70;56.40;;;;;;5037535;28;20577;-57
2022/12/08 02:31:52;;;;;;;9.27;6.60;;;7.60;56.40;;;;;;5036558;28;20478;-58
2022/12/08 02:34:42;;;;;;;9.70;7.60;;;7.60;56.60;;;;;;5033629;28;20451;-57
2022/12/08 02:37:14;;;;;;;9.50;7.20;;;7.60;56.60;;;;;;5035656;28;20656;-57
2022/12/08 02:40:10;;;;;;;9.03;7.20;;;7.60;56.40;;;;;;5036789;28;20455;-57
2022/12/08 02:42:51;;;;;;;10.60;8.07;;;7.60;56.30;;;;;;5044167;28;20442;-57
2022/12/08 02:45:24;;;;;;;10.10;6.97;;;7.60;56.20;;;;;;5028639;28;20530;-57
2022/12/08 02:47:51;;;;;;;10.43;8.83;;;7.50;56.20;;;;;;5035198;28;20578;-57
2022/12/08 02:50:17;;;;;;;15.47;7.87;;;7.50;56.40;;;;;;5039128;28;20443;-58
2022/12/08 02:52:46;;;;;;;9.80;7.57;;;7.50;56.50;;;;;;5030943;28;20444;-57
2022/12/08 02:55:36;;;;;;;13.37;8.73;;;7.40;56.40;;;;;;5043685;28;20448;-57
2022/12/08 02:58:02;;;;;;;10.10;7.60;;;7.40;56.50;;;;;;5045178;28;20434;-57
2022/12/08 03:00:32;;;;;;;9.30;7.20;;;7.40;56.40;;;;;;5048381;28;20435;-57
2022/12/08 03:03:06;;;;;;;9.83;7.80;;;7.30;56.30;;;;;;5050417;28;20637;-57
2022/12/08 03:05:37;;;;;;;12.60;8.77;;;7.30;56.30;;;;;;5052603;28;20530;-57
2022/12/08 03:08:22;;;;;;;11.40;8.20;;;7.20;56.40;;;;;;5045832;28;20532;-57
2022/12/08 03:11:11;;;;;;;11.10;7.87;;;7.20;56.50;;;;;;5048258;28;20431;-57
2022/12/08 03:13:44;;;;;;;9.30;6.90;;;7.10;56.70;;;;;;5048343;28;20449;-59
2022/12/08 03:16:13;;;;;;;9.07;7.00;;;7.10;56.90;;;;;;5047809;28;20450;-56
2022/12/08 03:18:47;;;;;;;11.03;8.17;;;7.10;57.20;;;;;;5048600;28;21093;-57
2022/12/08 03:21:16;;;;;;;8.87;7.93;;;7.10;57.10;;;;;;5051666;28;20863;-57
2022/12/08 03:23:45;;;;;;;12.47;8.20;;;7.10;56.90;;;;;;5044714;28;20509;-59
2022/12/08 03:26:45;;;;;;;9.37;7.20;;;7.10;56.80;;;;;;5045781;28;20436;-60
2022/12/08 03:29:11;;;;;;;10.90;7.90;;;7.00;57.20;;;;;;5036487;28;20490;-57
2022/12/08 03:31:42;;;;;;;10.63;7.40;;;7.00;57.00;;;;;;5046341;28;20439;-59
2022/12/08 03:34:10;;;;;;;13.43;7.27;;;7.00;57.30;;;;;;5040970;28;20432;-57
2022/12/08 03:36:36;;;;;;;10.70;7.83;;;6.90;57.30;;;;;;5041678;28;20480;-57
2022/12/08 03:39:02;;;;;;;10.80;7.97;;;6.90;57.30;;;;;;5053448;28;20847;-57
2022/12/08 03:41:28;;;;;;;10.83;7.73;;;7.00;57.20;;;;;;5052419;28;21443;-57
2022/12/08 03:43:58;;;;;;;8.50;7.10;;;6.90;57.20;;;;;;5043246;28;20447;-58
2022/12/08 03:46:26;;;;;;;11.43;8.90;;;6.90;57.10;;;;;;5049786;28;20585;-57
2022/12/08 03:48:51;;;;;;;10.43;7.60;;;6.90;57.10;;;;;;5037740;28;20828;-57
2022/12/08 03:51:17;;;;;;;9.87;7.20;;;6.90;57.00;;;;;;5039828;28;20442;-57
2022/12/08 03:53:43;;;;;;;9.50;7.10;;;6.90;56.80;;;;;;5048517;28;20193;-57
2022/12/08 03:56:23;;;;;;;14.43;6.87;;;6.80;56.60;;;;;;5036121;28;20518;-57
2022/12/08 03:58:48;;;;;;;11.50;7.70;;;6.70;56.60;;;;;;5051101;28;20203;-57
2022/12/08 04:01:14;;;;;;;8.90;7.17;;;6.70;56.70;;;;;;5047236;28;20447;-57
2022/12/08 04:03:39;;;;;;;9.30;7.40;;;6.60;56.70;;;;;;5050003;28;20747;-58
2022/12/08 04:06:06;;;;;;;9.87;7.47;;;6.50;57.10;;;;;;5053028;28;20215;-58
2022/12/08 04:08:31;;;;;;;11.40;8.30;;;6.50;57.30;;;;;;5045565;28;20602;-57
2022/12/08 04:10:57;;;;;;;10.17;6.97;;;6.50;57.60;;;;;;5047050;28;20427;-57
2022/12/08 04:13:23;;;;;;;11.40;7.87;;;6.50;57.90;;;;;;5049905;28;20216;-57
2022/12/08 04:15:48;;;;;;;12.20;7.83;;;6.50;57.80;;;;;;5051710;28;20200;-57
2022/12/08 04:18:15;;;;;;;10.20;6.70;;;6.30;57.70;;;;;;5046037;28;20203;-57
2022/12/08 04:20:41;;;;;;;12.50;8.00;;;6.10;58.00;;;;;;5045558;28;20220;-57
2022/12/08 04:23:07;;;;;;;18.20;7.50;;;6.00;58.90;;;;;;5048767;28;20470;-57
2022/12/08 04:25:34;;;;;;;10.20;7.90;;;5.90;59.10;;;;;;5052002;28;20445;-57
2022/12/08 04:28:00;;;;;;;10.50;6.70;;;6.00;59.20;;;;;;5052538;28;20231;-57
2022/12/08 04:30:26;;;;;;;9.83;7.60;;;6.10;59.00;;;;;;5052326;28;20419;-57
2022/12/08 04:32:51;;;;;;;10.00;7.70;;;6.10;58.50;;;;;;5052442;28;20192;-57
2022/12/08 04:35:17;;;;;;;9.00;7.43;;;6.20;58.20;;;;;;5057641;28;20493;-57
2022/12/08 04:37:43;;;;;;;14.43;7.20;;;6.20;57.70;;;;;;5052916;28;20219;-57
2022/12/08 04:40:10;;;;;;;25.60;8.20;;;6.30;57.60;;;;;;5052055;28;20555;-57
2022/12/08 04:42:36;;;;;;;22.53;12.10;;;6.20;57.40;;;;;;5052386;28;20433;-57
2022/12/08 04:45:02;;;;;;;10.80;7.73;;;6.10;57.30;;;;;;5051758;28;20423;-58
2022/12/08 04:47:28;;;;;;;9.40;8.10;;;6.10;57.40;;;;;;5052196;28;20485;-57
2022/12/08 04:49:53;;;;;;;7.53;6.67;;;6.10;57.40;;;;;;5051187;28;20923;-57
2022/12/08 04:52:19;;;;;;;10.97;8.60;;;6.10;57.30;;;;;;5053514;28;20200;-57
2022/12/08 04:54:45;;;;;;;9.33;8.00;;;6.10;57.20;;;;;;5050039;28;20195;-57
2022/12/08 04:57:10;;;;;;;25.87;8.50;;;5.90;57.20;;;;;;5043063;28;20189;-57
2022/12/08 04:59:36;;;;;;;38.60;9.70;;;5.40;58.00;;;;;;5039779;28;20272;-57
2022/12/08 05:02:02;;;;;;;15.47;8.20;;;4.90;59.70;;;;;;5054853;28;20216;-57
2022/12/08 05:04:27;;;;;;;37.50;9.60;;;4.90;60.80;;;;;;5035435;28;20279;-57
2022/12/08 05:06:53;;;;;;;16.00;7.87;;;4.90;60.90;;;;;;5033121;28;20247;-57
2022/12/08 05:09:18;;;;;;;58.40;10.33;;;4.90;61.20;;;;;;5032620;28;20216;-57
2022/12/08 05:11:44;;;;;;;28.67;8.73;;;4.90;61.70;;;;;;5033733;28;20197;-57
2022/12/08 05:14:12;;;;;;;27.37;8.80;;;4.80;61.80;;;;;;5032782;28;20197;-57
2022/12/08 05:16:38;;;;;;;19.83;8.37;;;5.00;61.50;;;;;;5030275;28;20193;-57
2022/12/08 05:19:04;;;;;;;17.70;8.53;;;5.10;60.80;;;;;;5032315;28;20530;-57
2022/12/08 05:21:30;;;;;;;18.93;9.77;;;5.30;60.40;;;;;;5030799;28;20450;-57
2022/12/08 05:23:55;;;;;;;13.60;9.03;;;5.40;60.00;;;;;;5037153;28;20474;-57
2022/12/08 05:26:21;;;;;;;12.07;7.90;;;5.50;59.80;;;;;;5036777;28;20259;-57
2022/12/08 05:28:46;;;;;;;14.83;9.00;;;5.50;59.40;;;;;;5033195;28;20316;-57
2022/12/08 05:31:13;;;;;;;12.03;9.07;;;5.50;59.20;;;;;;5034305;28;20192;-57
2022/12/08 05:33:39;;;;;;;16.10;10.87;;;5.60;59.20;;;;;;5036229;28;20192;-57
2022/12/08 05:36:05;;;;;;;16.10;8.93;;;5.60;59.10;;;;;;5033134;28;20875;-57
2022/12/08 05:38:31;;;;;;;14.40;8.97;;;5.60;59.00;;;;;;5037401;28;20211;-57
2022/12/08 05:40:56;;;;;;;11.13;8.40;;;5.70;58.90;;;;;;5038665;28;20783;-57
2022/12/08 05:43:22;;;;;;;15.40;8.30;;;5.70;58.70;;;;;;5040234;28;20192;-57
2022/12/08 05:45:47;;;;;;;9.43;6.50;;;5.70;58.50;;;;;;5034251;28;20644;-57
2022/12/08 05:48:13;;;;;;;13.77;7.97;;;5.70;58.30;;;;;;5031200;28;20228;-57
2022/12/08 05:50:39;;;;;;;18.93;8.37;;;5.50;58.30;;;;;;5031743;28;20680;-58
2022/12/08 05:53:04;;;;;;;11.70;9.50;;;5.50;58.60;;;;;;5045093;28;20192;-57
2022/12/08 05:55:30;;;;;;;15.03;8.70;;;5.50;58.60;;;;;;5053788;28;20232;-57
2022/12/08 05:57:55;;;;;;;17.20;8.90;;;5.50;58.40;;;;;;5050736;28;20192;-57
2022/12/08 06:00:21;;;;;;;12.40;9.83;;;5.40;58.50;;;;;;5050193;28;20203;-57
2022/12/08 06:02:47;;;;;;;10.33;8.30;;;5.40;58.70;;;;;;5048103;28;20284;-57
2022/12/08 06:05:12;;;;;;;12.90;9.10;;;5.40;58.80;;;;;;5050370;28;20698;-57
2022/12/08 06:07:38;;;;;;;16.13;9.30;;;5.40;58.70;;;;;;5048932;28;20303;-57
2022/12/08 06:10:04;;;;;;;9.57;7.90;;;5.50;58.70;;;;;;5052744;28;20660;-57
2022/12/08 06:12:30;;;;;;;11.33;8.73;;;5.50;58.40;;;;;;5046456;28;20656;-57
2022/12/08 06:14:56;;;;;;;10.63;7.00;;;5.50;58.40;;;;;;5038734;28;20443;-58
2022/12/08 06:17:21;;;;;;;11.30;8.20;;;5.60;60.30;;;;;;5040088;28;20204;-57
2022/12/08 06:19:47;;;;;;;11.20;8.30;;;6.00;63.40;;;;;;5048902;28;20204;-58
2022/12/08 06:22:12;;;;;;;10.97;8.13;;;6.40;63.60;;;;;;5047742;28;20283;-58
2022/12/08 06:24:38;;;;;;;11.97;9.03;;;6.80;63.60;;;;;;5035485;28;20684;-58
2022/12/08 06:27:03;;;;;;;12.27;8.47;;;7.10;63.10;;;;;;5034069;28;20278;-58
2022/12/08 06:29:29;;;;;;;12.87;9.27;;;7.30;61.60;;;;;;5048650;28;20193;-57
2022/12/08 06:31:54;;;;;;;11.07;8.40;;;7.40;59.00;;;;;;5028106;28;20191;-58
2022/12/08 06:34:20;;;;;;;10.90;8.07;;;7.40;57.30;;;;;;5039489;28;20192;-58
2022/12/08 06:36:45;;;;;;;11.27;8.50;;;7.20;56.20;;;;;;5035188;28;20205;-58
2022/12/08 06:39:11;;;;;;;26.43;8.73;;;7.00;55.40;;;;;;5045285;28;20220;-58
2022/12/08 06:42:42;;;;;;;13.13;8.80;;;6.80;55.10;;;;;;5051114;28;20192;-58
2022/12/08 06:44:22;;;;;;;15.23;9.00;;;6.50;55.50;;;;;;5052021;28;20344;-58
2022/12/08 06:46:48;;;;;;;13.77;8.63;;;6.00;56.00;;;;;;5052325;28;20439;-58
2022/12/08 06:49:13;;;;;;;11.60;8.90;;;5.70;56.90;;;;;;5053147;28;20774;-58
2022/12/08 06:51:39;;;;;;;14.27;8.77;;;5.40;57.60;;;;;;5053348;28;20212;-58
2022/12/08 06:54:04;;;;;;;20.73;9.03;;;5.50;58.10;;;;;;5054188;28;20242;-58
2022/12/08 06:56:30;;;;;;;25.10;9.10;;;5.50;57.80;;;;;;5048452;28;20196;-57
2022/12/08 06:58:55;;;;;;;13.97;9.30;;;5.50;58.00;;;;;;5052941;28;20231;-57
2022/12/08 07:01:21;;;;;;;12.60;8.27;;;5.40;58.10;;;;;;5054099;28;20188;-58
2022/12/08 07:03:46;;;;;;;12.90;8.10;;;5.60;58.20;;;;;;5051999;28;20548;-58
2022/12/08 07:06:20;;;;;;;15.03;8.90;;;5.50;57.90;;;;;;5052570;28;20554;-57
2022/12/08 07:08:45;;;;;;;15.00;10.30;;;5.50;58.00;;;;;;5050702;28;20281;-58
2022/12/08 07:11:11;;;;;;;20.33;9.73;;;5.50;57.70;;;;;;5052203;28;20447;-58
2022/12/08 07:13:37;;;;;;;19.87;9.90;;;5.60;57.40;;;;;;5047748;28;20215;-58
2022/12/08 07:16:07;;;;;;;13.50;9.37;;;5.50;57.50;;;;;;5046284;28;20196;-57
2022/12/08 07:18:33;;;;;;;14.37;9.70;;;5.30;57.80;;;;;;5036572;28;20201;-58
2022/12/08 07:21:07;;;;;;;12.47;8.53;;;5.20;58.20;;;;;;5050477;28;20588;-57
2022/12/08 07:23:33;;;;;;;11.93;8.40;;;5.20;58.60;;;;;;5045416;28;20502;-58
2022/12/08 07:26:04;;;;;;;10.70;8.70;;;5.30;58.40;;;;;;5052142;28;20443;-58
2022/12/08 07:28:32;;;;;;;16.40;9.70;;;5.20;58.40;;;;;;5046751;28;20487;-58
2022/12/08 07:30:58;;;;;;;13.30;10.13;;;5.40;58.50;;;;;;5053260;28;20426;-58
2022/12/08 07:33:23;;;;;;;14.17;10.20;;;5.50;58.10;;;;;;5046216;28;20542;-57
2022/12/08 07:35:57;;;;;;;12.10;9.20;;;5.50;57.80;;;;;;5043556;28;20556;-58
2022/12/08 07:38:23;;;;;;;14.07;10.60;;;5.50;57.50;;;;;;5044321;28;20257;-58
2022/12/08 07:40:50;;;;;;;17.17;11.00;;;5.50;57.50;;;;;;5053351;28;20465;-58
2022/12/08 07:43:15;;;;;;;22.53;9.90;;;5.60;57.50;;;;;;5052551;28;20543;-58
2022/12/08 07:45:41;;;;;;;14.93;9.03;;;5.50;57.50;;;;;;5053361;28;20514;-58
2022/12/08 07:48:07;;;;;;;15.00;10.43;;;5.40;57.90;;;;;;5050873;28;20224;-58
2022/12/08 07:50:32;;;;;;;31.23;11.67;;;5.50;58.20;;;;;;5053102;28;20280;-58
2022/12/08 07:52:58;;;;;;;16.30;10.43;;;5.30;58.10;;;;;;5052994;28;20443;-58
2022/12/08 07:55:24;;;;;;;17.03;10.63;;;5.20;58.60;;;;;;5052550;28;20777;-58
2022/12/08 07:57:50;;;;;;;13.80;10.00;;;5.20;58.90;;;;;;5052249;28;20533;-58
2022/12/08 08:00:16;;;;;;;15.60;11.13;;;5.20;58.90;;;;;;5053188;28;20192;-58
2022/12/08 08:02:42;;;;;;;13.93;9.83;;;5.00;58.90;;;;;;5051700;28;20923;-58
2022/12/08 08:05:08;;;;;;;17.30;11.20;;;4.90;59.50;;;;;;5052831;28;20431;-58
2022/12/08 08:07:34;;;;;;;14.87;9.63;;;5.00;59.90;;;;;;5053174;28;20222;-58
2022/12/08 08:09:59;;;;;;;17.73;11.53;;;5.20;59.70;;;;;;5050846;28;20443;-58
2022/12/08 08:12:25;;;;;;;19.93;10.20;;;5.40;59.40;;;;;;5052373;28;20556;-58
2022/12/08 08:14:50;;;;;;;14.70;11.37;;;5.50;59.20;;;;;;5052780;28;20316;-58
2022/12/08 08:17:16;;;;;;;12.90;10.50;;;5.50;59.00;;;;;;5053093;28;20193;-58
2022/12/08 08:19:41;;;;;;;12.40;9.40;;;5.50;59.20;;;;;;5051773;28;20216;-58
2022/12/08 08:22:07;;;;;;;13.93;9.93;;;5.70;59.20;;;;;;5050608;28;20207;-58
2022/12/08 08:24:33;;;;;;;11.70;8.80;;;5.50;59.30;;;;;;5049771;28;20252;-59
2022/12/08 08:26:58;;;;;;;13.10;9.27;;;5.40;59.80;;;;;;5052008;28;20188;-58
2022/12/08 08:29:24;;;;;;;13.47;10.10;;;5.50;60.20;;;;;;5050079;28;20336;-58
2022/12/08 08:31:49;;;;;;;10.67;9.00;;;5.40;60.40;;;;;;5050394;28;20201;-59
2022/12/08 08:34:15;;;;;;;11.77;8.63;;;5.20;61.00;;;;;;5052269;28;20192;-58
2022/12/08 08:36:41;;;;;;;12.40;8.37;;;4.90;62.40;;;;;;5052098;28;20189;-58
2022/12/08 08:39:06;;;;;;;11.33;9.17;;;4.80;63.70;;;;;;5048845;28;20204;-59
2022/12/08 08:41:32;;;;;;;11.00;9.00;;;4.70;64.20;;;;;;5051413;28;20602;-59
2022/12/08 08:43:58;;;;;;;12.73;9.60;;;4.80;64.50;;;;;;5044235;28;21022;-58
2022/12/08 08:46:23;;;;;;;15.83;10.30;;;5.00;65.10;;;;;;5039523;28;20217;-58
2022/12/08 08:48:49;;;;;;;11.37;8.80;;;5.20;64.80;;;;;;5037779;28;20319;-58
2022/12/08 08:51:14;;;;;;;17.40;9.73;;;5.30;65.20;;;;;;5044581;28;20196;-59
2022/12/08 08:53:41;;;;;;;14.33;10.03;;;5.40;64.90;;;;;;5049371;28;20232;-59
2022/12/08 08:56:12;;;;;;;12.13;10.53;;;5.40;65.00;;;;;;5048528;28;20196;-59
2022/12/08 08:58:37;;;;;;;13.50;9.20;;;5.60;65.20;;;;;;5038636;28;20451;-58
2022/12/08 09:01:03;;;;;;;13.87;9.50;;;5.70;64.30;;;;;;5052212;28;20427;-59
2022/12/08 09:03:29;;;;;;;13.50;10.17;;;5.80;64.10;;;;;;5049428;28;20197;-58
2022/12/08 09:05:55;;;;;;;15.03;10.07;;;5.80;64.10;;;;;;5049815;28;20227;-58
2022/12/08 09:08:21;;;;;;;16.63;9.63;;;6.00;64.60;;;;;;5049622;28;20232;-58
2022/12/08 09:10:47;;;;;;;13.30;8.63;;;6.10;64.50;;;;;;5049107;28;20457;-58
2022/12/08 09:13:12;;;;;;;11.67;9.30;;;6.30;63.90;;;;;;5050152;28;20526;-58
2022/12/08 09:15:38;;;;;;;13.57;10.10;;;6.30;63.10;;;;;;5050292;28;20196;-58
2022/12/08 09:18:05;;;;;;;10.93;8.20;;;6.30;63.40;;;;;;5047654;28;20196;-58
2022/12/08 09:20:32;;;;;;;13.57;9.70;;;6.20;63.20;;;;;;5051824;28;20204;-58
2022/12/08 09:22:58;;;;;;;11.43;8.63;;;6.40;63.80;;;;;;5045989;28;20911;-58
2022/12/08 09:25:23;;;;;;;12.40;9.27;;;6.60;63.30;;;;;;5036725;28;20482;-58
2022/12/08 09:27:49;;;;;;;10.53;8.83;;;6.80;62.60;;;;;;5041679;28;20232;-58
2022/12/08 09:30:15;;;;;;;10.07;8.03;;;6.80;61.90;;;;;;5040635;28;20192;-58
2022/12/08 09:32:40;;;;;;;10.30;8.20;;;6.60;61.70;;;;;;5048408;28;20188;-58
2022/12/08 09:35:06;;;;;;;8.03;7.23;;;6.80;62.60;;;;;;5045118;28;20445;-58
2022/12/08 09:37:32;;;;;;;10.03;8.20;;;6.90;61.40;;;;;;5040847;28;20201;-58
2022/12/08 09:39:58;;;;;;;11.77;8.20;;;7.20;61.40;;;;;;5036033;28;21054;-59
2022/12/08 09:42:41;;;;;;;14.90;8.30;;;7.30;59.70;;;;;;5050315;28;20196;-58
2022/12/08 09:45:15;;;;;;;10.13;8.53;;;7.40;59.50;;;;;;5047303;28;20434;-58
2022/12/08 09:47:52;;;;;;;8.60;7.70;;;7.40;59.30;;;;;;5042352;28;20485;-58
2022/12/08 09:50:49;;;;;;;9.60;7.80;;;7.60;59.30;;;;;;5042748;28;20463;-58
2022/12/08 09:53:20;;;;;;;11.30;8.47;;;7.90;57.90;;;;;;5040594;28;20485;-58
2022/12/08 09:55:52;;;;;;;10.27;7.40;;;8.10;57.60;;;;;;5042158;28;20451;-58
2022/12/08 09:58:46;;;;;;;8.90;7.20;;;8.10;56.90;;;;;;5041635;28;20962;-58
2022/12/08 10:01:13;;;;;;;8.07;6.80;;;8.20;56.10;;;;;;5039779;28;20455;-59
2022/12/08 10:03:40;;;;;;;10.20;7.87;;;8.20;56.40;;;;;;5029861;28;20531;-58
2022/12/08 10:06:29;;;;;;;11.70;8.43;;;8.40;55.60;;;;;;5047055;28;20439;-59
2022/12/08 10:09:03;;;;;;;8.27;7.47;;;8.40;55.60;;;;;;5037132;28;20537;-59
2022/12/08 10:11:41;;;;;;;8.83;7.40;;;8.50;55.40;;;;;;5046069;28;20930;-59
2022/12/08 10:14:24;;;;;;;9.40;6.80;;;8.80;55.50;;;;;;5043687;28;20439;-59
2022/12/08 10:16:55;;;;;;;10.10;6.83;;;9.10;54.70;;;;;;5048353;28;20530;-59
2022/12/08 10:19:25;;;;;;;8.63;7.37;;;9.20;53.60;;;;;;5034964;28;20533;-59
2022/12/08 10:21:53;;;;;;;8.40;7.60;;;9.20;53.60;;;;;;5035012;28;20450;-59
2022/12/08 10:24:36;;;;;;;8.83;7.93;;;9.30;53.90;;;;;;5039197;28;20545;-59
2022/12/08 10:27:02;;;;;;;11.33;7.00;;;9.40;53.80;;;;;;5040996;28;20455;-57
2022/12/08 10:29:28;;;;;;;13.00;9.00;;;9.80;53.10;;;;;;5047567;28;20498;-58
2022/12/08 10:31:57;;;;;;;9.30;6.93;;;10.20;51.10;;;;;;5032268;28;20455;-58
2022/12/08 10:34:23;;;;;;;7.20;6.50;;;10.50;50.00;;;;;;5037030;28;20602;-58
2022/12/08 10:36:55;;;;;;;8.93;7.23;;;10.50;49.80;;;;;;5036608;28;20448;-58
2022/12/08 10:39:31;;;;;;;8.57;7.40;;;10.50;50.10;;;;;;5045736;28;20842;-58
2022/12/08 10:42:20;;;;;;;7.80;6.80;;;10.80;49.60;;;;;;5041400;28;20456;-59
2022/12/08 10:44:58;;;;;;;7.23;6.50;;;10.90;48.60;;;;;;5033790;28;20451;-58
2022/12/08 10:47:26;;;;;;;7.93;6.60;;;11.10;48.40;;;;;;5035821;28;20455;-58
2022/12/08 10:50:19;;;;;;;10.47;7.30;;;11.40;47.30;;;;;;5039719;28;20514;-58
2022/12/08 10:52:52;;;;;;;6.90;6.20;;;11.70;47.30;;;;;;5042246;28;20442;-58
2022/12/08 10:55:20;;;;;;;6.13;5.30;;;12.00;46.50;;;;;;5040712;28;20442;-58
2022/12/08 10:57:47;;;;;;;5.00;4.50;;;12.30;45.50;;;;;;5036609;28;20448;-59
2022/12/08 11:00:19;;;;;;;6.03;5.43;;;12.70;43.90;;;;;;5032064;28;20469;-59
2022/12/08 11:03:03;;;;;;;6.50;5.20;;;13.00;43.10;;;;;;5041322;28;20810;-58
2022/12/08 11:05:32;;;;;;;6.50;4.90;;;13.20;42.50;;;;;;5040915;28;20613;-58
2022/12/08 11:07:59;;;;;;;5.90;5.30;;;13.20;42.70;;;;;;5041445;28;20546;-59
2022/12/08 11:10:36;;;;;;;6.03;5.03;;;13.10;42.60;;;;;;5047332;28;20450;-59
2022/12/08 11:13:05;;;;;;;7.07;5.60;;;13.00;42.60;;;;;;5047561;28;20450;-59
2022/12/08 11:15:37;;;;;;;8.47;5.87;;;12.80;42.60;;;;;;5041273;28;20873;-58
2022/12/08 11:18:19;;;;;;;12.27;5.80;;;12.50;43.50;;;;;;5046137;28;20470;-58
2022/12/08 11:20:44;;;;;;;5.60;5.03;;;12.50;43.90;;;;;;5039914;28;20823;-58
2022/12/08 11:23:22;;;;;;;8.50;6.50;;;12.50;44.10;;;;;;5047421;28;20475;-58
2022/12/08 11:25:49;;;;;;;7.53;5.77;;;12.50;44.00;;;;;;5044244;28;20203;-58
2022/12/08 11:28:17;;;;;;;5.43;4.93;;;12.20;43.70;;;;;;5043398;28;20482;-58
2022/12/08 11:30:50;;;;;;;6.33;5.60;;;11.90;45.00;;;;;;5043246;28;21030;-59
2022/12/08 11:33:23;;;;;;;7.93;5.27;;;12.00;45.30;;;;;;5044135;28;20488;-59
2022/12/08 11:36:02;;;;;;;6.10;5.20;;;12.30;45.30;;;;;;5042569;28;20435;-59
2022/12/08 11:38:28;;;;;;;6.77;5.37;;;12.50;44.30;;;;;;5039658;28;20447;-59
2022/12/08 11:41:14;;;;;;;5.80;5.27;;;12.60;43.90;;;;;;5042152;28;20952;-58
2022/12/08 11:44:08;;;;;;;5.27;4.77;;;12.80;43.90;;;;;;5045694;28;20824;-58
2022/12/08 11:46:55;;;;;;;5.70;5.20;;;12.90;43.40;;;;;;5044473;28;20482;-59
2022/12/08 11:49:31;;;;;;;8.43;6.17;;;12.80;43.40;;;;;;5045610;28;20492;-59
2022/12/08 11:52:11;;;;;;;4.70;4.30;;;12.90;43.00;;;;;;5047292;28;20569;-59
2022/12/08 11:54:47;;;;;;;5.40;4.90;;;13.00;42.70;;;;;;5051963;28;20472;-58
2022/12/08 11:57:19;;;;;;;5.93;5.33;;;13.00;42.50;;;;;;5038844;28;20472;-59
2022/12/08 11:59:48;;;;;;;5.83;4.73;;;13.00;43.00;;;;;;5046290;28;20440;-59
2022/12/08 12:02:20;;;;;;;5.60;4.97;;;12.90;42.40;;;;;;5052080;28;20435;-58
2022/12/08 12:04:57;;;;;;;6.83;4.67;;;12.90;42.60;;;;;;5050697;28;20462;-59
2022/12/08 12:07:38;;;;;;;6.00;5.40;;;12.90;41.60;;;;;;5048847;28;20455;-58
2022/12/08 12:11:06;;;;;;;5.70;5.10;;;12.80;41.70;;;;;;5043764;28;20453;-60
2022/12/08 12:13:31;;;;;;;5.97;5.17;;;12.70;42.10;;;;;;4995050;28;21077;-58
2022/12/08 12:16:21;;;;;;;6.07;5.33;;;12.60;42.20;;;;;;4999065;28;20469;-58
2022/12/08 12:18:51;;;;;;;5.67;5.13;;;12.60;42.60;;;;;;5028661;28;20231;-59
2022/12/08 12:21:28;;;;;;;5.90;4.97;;;12.50;42.80;;;;;;5045613;28;20448;-58
2022/12/08 12:24:02;;;;;;;7.00;5.23;;;12.50;42.90;;;;;;5033978;28;20475;-59
2022/12/08 12:26:31;;;;;;;6.50;5.20;;;12.50;42.90;;;;;;5046086;28;20442;-58
2022/12/08 12:29:03;;;;;;;9.10;5.40;;;12.40;43.10;;;;;;5046938;28;20479;-58
2022/12/08 12:31:36;;;;;;;7.60;4.83;;;12.40;43.40;;;;;;5045064;28;21754;-58
2022/12/08 12:34:15;;;;;;;7.40;5.10;;;12.30;43.50;;;;;;5046175;28;20454;-59
2022/12/08 12:36:52;;;;;;;6.50;4.70;;;12.20;43.20;;;;;;5045020;28;20493;-59
2022/12/08 12:39:22;;;;;;;7.27;4.70;;;12.20;43.30;;;;;;5037163;28;20434;-60
2022/12/08 12:41:54;;;;;;;6.80;5.70;;;12.10;43.20;;;;;;5048324;28;20501;-59
2022/12/08 12:44:24;;;;;;;7.00;4.90;;;12.00;43.50;;;;;;5047820;28;20447;-59
2022/12/08 12:46:49;;;;;;;5.93;5.27;;;11.90;43.60;;;;;;5047185;28;20479;-58
2022/12/08 12:49:36;;;;;;;7.90;5.63;;;11.80;43.70;;;;;;5042601;28;20898;-58
2022/12/08 12:52:23;;;;;;;6.67;5.13;;;11.70;44.10;;;;;;5041899;28;20645;-59
2022/12/08 12:54:49;;;;;;;4.97;4.47;;;11.70;44.00;;;;;;5041359;28;20439;-58
2022/12/08 12:57:20;;;;;;;5.07;4.60;;;11.40;43.60;;;;;;5041777;28;20458;-59
2022/12/08 12:59:52;;;;;;;5.70;5.10;;;11.50;44.50;;;;;;5052331;28;20204;-58
2022/12/08 13:02:31;;;;;;;5.20;4.70;;;11.50;44.20;;;;;;5047772;28;20439;-59